createdAt,value
2023-01-08T00:01:14.543Z,100367.88
2023-01-08T00:03:41.541Z,100373.84
2023-01-08T00:06:13.767Z,100360.84
2023-01-08T00:08:40.437Z,100366.81
2023-01-08T00:11:07.269Z,100350.41
2023-01-08T00:13:34.430Z,100351.25
2023-01-08T00:16:06.382Z,100347.59
2023-01-08T00:18:33.279Z,100331.94
2023-01-08T00:20:59.945Z,100337.38
2023-01-08T00:23:27.133Z,100337.38
2023-01-08T00:25:53.586Z,100345.16
2023-01-08T00:28:20.974Z,100343.97
2023-01-08T00:30:48.515Z,100350.91
2023-01-08T00:33:15.367Z,100330.84
2023-01-08T00:35:41.736Z,100336.72
2023-01-08T00:38:08.441Z,100337.72
2023-01-08T00:40:36.019Z,100326.28
2023-01-08T00:43:02.810Z,100319.16
2023-01-08T00:45:29.181Z,100309.59
2023-01-08T00:47:55.632Z,100304.38
2023-01-08T00:50:21.984Z,100303.44
2023-01-08T00:52:48.458Z,100308.72
2023-01-08T00:55:15.116Z,100297.34
2023-01-08T00:57:41.471Z,100292.28
2023-01-08T01:00:11.372Z,100290.63
2023-01-08T01:02:38.466Z,100281.81
2023-01-08T01:05:05.934Z,100285.19
2023-01-08T01:07:34.142Z,100295.72
2023-01-08T01:10:00.993Z,100309.88
2023-01-08T01:12:28.236Z,100316.81
2023-01-08T01:14:54.654Z,100309.09
2023-01-08T01:17:21.092Z,100317.47
2023-01-08T01:19:47.456Z,100316.88
2023-01-08T01:22:13.879Z,100312.88
2023-01-08T01:24:40.256Z,100309.34
2023-01-08T01:27:06.793Z,100310.91
2023-01-08T01:29:33.153Z,100310.81
2023-01-08T01:31:59.651Z,100306.28
2023-01-08T01:34:26.013Z,100304.53
2023-01-08T01:36:52.440Z,100313.22
2023-01-08T01:39:20.460Z,100306.97
2023-01-08T01:41:47.412Z,100297.94
2023-01-08T01:44:53.562Z,100291.63
2023-01-08T01:47:34.081Z,100297.63
2023-01-08T01:50:11.695Z,100301.09
2023-01-08T01:52:47.453Z,100300.91
2023-01-08T01:55:15.732Z,100292.16
2023-01-08T01:57:49.010Z,100290.25
2023-01-08T02:00:15.954Z,100286.00
2023-01-08T02:02:42.637Z,100300.03
2023-01-08T02:05:09.378Z,100293.13
2023-01-08T02:08:03.193Z,100286.09
2023-01-08T02:10:42.477Z,100282.53
2023-01-08T02:13:14.645Z,100281.56
2023-01-08T02:15:40.943Z,100276.34
2023-01-08T02:18:17.792Z,100278.00
2023-01-08T02:20:57.223Z,100278.00
2023-01-08T02:23:34.015Z,100271.00
2023-01-08T02:26:09.512Z,100279.59
2023-01-08T02:28:52.486Z,100274.31
2023-01-08T02:31:21.283Z,100262.88
2023-01-08T02:33:47.642Z,100259.41
2023-01-08T02:36:28.743Z,100264.66
2023-01-08T02:39:16.279Z,100258.69
2023-01-08T02:42:15.241Z,100243.91
2023-01-08T02:44:50.714Z,100240.53
2023-01-08T02:47:24.709Z,100228.31
2023-01-08T02:49:56.570Z,100226.69
2023-01-08T02:52:26.002Z,100226.63
2023-01-08T02:54:54.153Z,100217.03
2023-01-08T02:57:21.208Z,100225.72
2023-01-08T02:59:49.999Z,100240.53
2023-01-08T03:02:17.478Z,100237.06
2023-01-08T03:04:54.357Z,100233.63
2023-01-08T03:07:21.364Z,100245.19
2023-01-08T03:09:47.991Z,100249.75
2023-01-08T03:12:27.244Z,100247.13
2023-01-08T03:15:04.131Z,100253.84
2023-01-08T03:17:35.900Z,100253.09
2023-01-08T03:20:17.412Z,100251.59
2023-01-08T03:22:47.381Z,100240.94
2023-01-08T03:25:15.891Z,100236.63
2023-01-08T03:27:45.897Z,100236.56
2023-01-08T03:30:14.258Z,100230.41
2023-01-08T03:32:43.781Z,100243.50
2023-01-08T03:35:14.092Z,100243.69
2023-01-08T03:37:45.557Z,100235.44
2023-01-08T03:40:19.669Z,100232.09
2023-01-08T03:42:46.209Z,100227.06
2023-01-08T03:45:12.672Z,100227.03
2023-01-08T03:47:40.623Z,100233.94
2023-01-08T03:50:11.763Z,100235.81
2023-01-08T03:52:38.404Z,100231.59
2023-01-08T03:55:05.135Z,100231.66
2023-01-08T03:57:31.563Z,100232.50
2023-01-08T03:59:57.951Z,100234.97
2023-01-08T04:02:24.543Z,100231.41
2023-01-08T04:04:51.173Z,100236.28
2023-01-08T04:07:17.609Z,100238.75
2023-01-08T04:09:43.984Z,100242.22
2023-01-08T04:12:10.453Z,100247.72
2023-01-08T04:14:36.921Z,100226.97
2023-01-08T04:17:03.339Z,100233.63
2023-01-08T04:19:29.820Z,100221.22
2023-01-08T04:21:56.355Z,100220.34
2023-01-08T04:24:22.753Z,100215.97
2023-01-08T04:26:49.171Z,100217.69
2023-01-08T04:29:15.751Z,100218.53
2023-01-08T04:31:42.173Z,100214.06
2023-01-08T04:34:10.368Z,100209.56
2023-01-08T04:36:36.748Z,100209.44
2023-01-08T04:39:03.843Z,100201.53
2023-01-08T04:41:30.756Z,100201.59
2023-01-08T04:43:57.205Z,100191.16
2023-01-08T04:46:23.825Z,100189.25
2023-01-08T04:48:50.274Z,100187.34
2023-01-08T04:51:17.076Z,100180.34
2023-01-08T04:53:43.541Z,100179.41
2023-01-08T04:56:11.097Z,100181.19
2023-01-08T04:58:38.562Z,100176.75
2023-01-08T05:01:24.822Z,100167.16
2023-01-08T05:03:56.408Z,100162.81
2023-01-08T05:06:23.161Z,100162.94
2023-01-08T05:08:49.633Z,100157.72
2023-01-08T05:11:16.243Z,100157.72
2023-01-08T05:13:42.706Z,100148.84
2023-01-08T05:16:09.239Z,100151.34
2023-01-08T05:18:35.723Z,100158.50
2023-01-08T05:21:04.844Z,100162.09
2023-01-08T05:23:32.504Z,100160.44
2023-01-08T05:26:00.097Z,100162.13
2023-01-08T05:28:27.809Z,100161.06
2023-01-08T05:30:54.825Z,100160.94
2023-01-08T05:33:21.682Z,100158.56
2023-01-08T05:35:48.122Z,100155.31
2023-01-08T05:38:14.766Z,100156.91
2023-01-08T05:40:41.237Z,100161.41
2023-01-08T05:43:07.840Z,100154.41
2023-01-08T05:45:34.595Z,100160.38
2023-01-08T05:48:05.117Z,100158.59
2023-01-08T05:50:31.543Z,100156.91
2023-01-08T05:52:57.936Z,100153.50
2023-01-08T05:55:24.421Z,100159.59
2023-01-08T05:57:50.859Z,100160.56
2023-01-08T06:00:17.318Z,100155.31
2023-01-08T06:02:47.945Z,100154.41
2023-01-08T06:05:14.541Z,100152.59
2023-01-08T06:07:41.101Z,100147.22
2023-01-08T06:10:08.187Z,100156.88
2023-01-08T06:12:34.708Z,100149.69
2023-01-08T06:15:01.079Z,100153.28
2023-01-08T06:17:27.652Z,100136.84
2023-01-08T06:19:54.073Z,100138.72
2023-01-08T06:22:20.487Z,100140.56
2023-01-08T06:24:46.943Z,100145.53
2023-01-08T06:27:13.304Z,100143.84
2023-01-08T06:29:40.190Z,100143.00
2023-01-08T06:32:06.590Z,100151.00
2023-01-08T06:34:32.989Z,100146.91
2023-01-08T06:36:59.472Z,100149.53
2023-01-08T06:39:26.141Z,100138.00
2023-01-08T06:41:52.510Z,100136.97
2023-01-08T06:44:18.979Z,100135.97
2023-01-08T06:46:45.750Z,100131.06
2023-01-08T06:49:12.189Z,100136.47
2023-01-08T06:51:38.651Z,100132.78
2023-01-08T06:54:05.089Z,100135.22
2023-01-08T06:56:32.218Z,100132.47
2023-01-08T06:58:59.608Z,100135.91
2023-01-08T07:01:26.213Z,100125.50
2023-01-08T07:03:52.677Z,100132.44
2023-01-08T07:06:21.465Z,100134.19
2023-01-08T07:08:47.906Z,100131.75
2023-01-08T07:11:15.347Z,100127.44
2023-01-08T07:13:42.368Z,100132.47
2023-01-08T07:16:11.298Z,100128.06
2023-01-08T07:18:38.450Z,100127.16
2023-01-08T07:21:06.078Z,100123.75
2023-01-08T07:23:33.436Z,100126.28
2023-01-08T07:26:01.726Z,100129.63
2023-01-08T07:28:29.177Z,100122.63
2023-01-08T07:30:55.632Z,100116.63
2023-01-08T07:33:22.245Z,100119.94
2023-01-08T07:35:55.403Z,100118.81
2023-01-08T07:38:22.796Z,100120.44
2023-01-08T07:40:49.537Z,100119.38
2023-01-08T07:43:16.173Z,100116.81
2023-01-08T07:45:42.688Z,100114.34
2023-01-08T07:48:15.809Z,100110.91
2023-01-08T07:50:45.230Z,100112.66
2023-01-08T07:53:13.664Z,100106.50
2023-01-08T07:55:40.134Z,100107.22
2023-01-08T07:58:08.847Z,100108.81
2023-01-08T08:00:35.876Z,100105.22
2023-01-08T08:03:04.264Z,100106.06
2023-01-08T08:05:30.769Z,100102.69
2023-01-08T08:07:57.202Z,100096.66
2023-01-08T08:10:23.574Z,100102.75
2023-01-08T08:12:49.965Z,100103.63
2023-01-08T08:15:16.363Z,100110.69
2023-01-08T08:17:46.870Z,100107.50
2023-01-08T08:20:13.623Z,100104.13
2023-01-08T08:22:40.166Z,100103.50
2023-01-08T08:25:07.145Z,100095.66
2023-01-08T08:27:36.811Z,100101.91
2023-01-08T08:30:04.691Z,100107.22
2023-01-08T08:32:31.057Z,100102.44
2023-01-08T08:34:57.559Z,100103.56
2023-01-08T08:37:23.934Z,100102.91
2023-01-08T08:39:50.466Z,100094.31
2023-01-08T08:42:16.807Z,100095.94
2023-01-08T08:44:43.455Z,100095.91
2023-01-08T08:47:10.426Z,100103.69
2023-01-08T08:49:36.835Z,100089.84
2023-01-08T08:52:04.616Z,100091.41
2023-01-08T08:54:31.012Z,100089.72
2023-01-08T08:56:57.466Z,100087.94
2023-01-08T08:59:23.994Z,100092.25
2023-01-08T09:01:50.504Z,100089.72
2023-01-08T09:04:16.874Z,100092.59
2023-01-08T09:06:43.286Z,100088.34
2023-01-08T09:09:09.677Z,100091.81
2023-01-08T09:11:36.186Z,100100.28
2023-01-08T09:14:02.588Z,100098.47
2023-01-08T09:16:29.097Z,100095.09
2023-01-08T09:18:55.980Z,100090.97
2023-01-08T09:21:22.414Z,100102.41
2023-01-08T09:23:49.148Z,100095.72
2023-01-08T09:26:15.581Z,100092.09
2023-01-08T09:28:42.020Z,100106.72
2023-01-08T09:31:08.481Z,100111.09
2023-01-08T09:33:35.561Z,100099.16
2023-01-08T09:36:01.913Z,100097.41
2023-01-08T09:38:30.022Z,100092.88
2023-01-08T09:41:01.537Z,100091.03
2023-01-08T09:43:31.537Z,100095.94
2023-01-08T09:46:00.800Z,100092.44
2023-01-08T09:48:29.889Z,100092.25
2023-01-08T09:50:57.083Z,100091.41
2023-01-08T09:53:24.279Z,100096.69
2023-01-08T09:56:09.875Z,100088.06
2023-01-08T09:58:51.037Z,100083.44
2023-01-08T10:01:28.079Z,100075.56
2023-01-08T10:04:03.969Z,100083.16
2023-01-08T10:06:31.297Z,100073.41
2023-01-08T10:08:58.903Z,100088.94
2023-01-08T10:11:28.309Z,100077.53
2023-01-08T10:13:57.153Z,100071.50
2023-01-08T10:16:33.217Z,100074.13
2023-01-08T10:19:00.040Z,100082.78
2023-01-08T10:21:40.913Z,100075.72
2023-01-08T10:24:08.104Z,100073.09
2023-01-08T10:26:37.533Z,100070.28
2023-01-08T10:29:19.867Z,100073.47
2023-01-08T10:31:55.373Z,100066.47
2023-01-08T10:34:32.716Z,100069.97
2023-01-08T10:36:59.289Z,100065.44
2023-01-08T10:39:28.306Z,100060.09
2023-01-08T10:41:58.513Z,100057.69
2023-01-08T10:44:26.254Z,100052.88
2023-01-08T10:47:00.095Z,100061.00
2023-01-08T10:49:33.287Z,100063.91
2023-01-08T10:52:00.700Z,100043.03
2023-01-08T10:54:37.314Z,100046.56
2023-01-08T10:57:35.491Z,100050.03
2023-01-08T11:00:01.883Z,100033.63
2023-01-08T11:02:38.967Z,100019.50
2023-01-08T11:05:08.761Z,100024.41
2023-01-08T11:07:35.502Z,100019.00
2023-01-08T11:10:03.636Z,100032.97
2023-01-08T11:12:41.649Z,100048.97
2023-01-08T11:15:32.864Z,100050.31
2023-01-08T11:18:21.920Z,100051.81
2023-01-08T11:20:49.564Z,100050.03
2023-01-08T11:23:24.333Z,100053.91
2023-01-08T11:26:02.621Z,100063.66
2023-01-08T11:28:42.162Z,100068.88
2023-01-08T11:31:45.616Z,100058.34
2023-01-08T11:34:22.020Z,100048.34
2023-01-08T11:37:14.799Z,100035.59
2023-01-08T11:39:41.218Z,100038.47
2023-01-08T11:42:34.396Z,100030.41
2023-01-08T11:45:17.834Z,100019.53
2023-01-08T11:47:53.375Z,100024.03
2023-01-08T11:50:28.137Z,100007.09
2023-01-08T11:53:45.299Z,99995.75
2023-01-08T11:56:20.617Z,99998.16
2023-01-08T11:59:05.889Z,99981.94
2023-01-08T12:01:59.306Z,99977.88
2023-01-08T12:05:01.449Z,99961.69
2023-01-08T12:07:49.829Z,99965.16
2023-01-08T12:10:43.852Z,99957.91
2023-01-08T12:13:47.607Z,99963.91
2023-01-08T12:16:59.095Z,99961.38
2023-01-08T12:19:44.956Z,99965.41
2023-01-08T12:22:44.646Z,99955.75
2023-01-08T12:25:37.774Z,99957.41
2023-01-08T12:28:42.079Z,99964.81
2023-01-08T12:31:30.450Z,99957.31
2023-01-08T12:34:05.229Z,99946.19
2023-01-08T12:36:38.671Z,99943.22
2023-01-08T12:39:12.440Z,99937.22
2023-01-08T12:41:41.042Z,99952.28
2023-01-08T12:44:12.032Z,99949.94
2023-01-08T12:46:43.051Z,99944.84
2023-01-08T12:49:14.448Z,99949.56
2023-01-08T12:52:03.238Z,99934.69
2023-01-08T12:54:51.601Z,99940.69
2023-01-08T12:57:39.878Z,99937.81
2023-01-08T13:00:40.649Z,99938.66
2023-01-08T13:03:15.187Z,99937.50
2023-01-08T13:05:43.603Z,99935.16
2023-01-08T13:08:34.282Z,99938.94
2023-01-08T13:11:01.064Z,99928.03
2023-01-08T13:13:35.116Z,99927.34
2023-01-08T13:16:28.005Z,99922.31
2023-01-08T13:19:02.750Z,99914.97
2023-01-08T13:21:36.439Z,99913.97
2023-01-08T13:24:29.920Z,99900.19
2023-01-08T13:26:57.610Z,99898.88
2023-01-08T13:29:38.577Z,99900.94
2023-01-08T13:32:39.112Z,99882.44
2023-01-08T13:35:08.740Z,99889.59
2023-01-08T13:37:35.200Z,99883.09
2023-01-08T13:40:01.600Z,99888.63
2023-01-08T13:42:28.629Z,99889.75
2023-01-08T13:45:01.052Z,99885.88
2023-01-08T13:47:31.856Z,99868.47
2023-01-08T13:50:03.120Z,99871.50
2023-01-08T13:52:46.012Z,99875.75
2023-01-08T13:55:43.354Z,99870.97
2023-01-08T13:58:18.143Z,99866.69
2023-01-08T14:00:48.928Z,99863.97
2023-01-08T14:03:24.260Z,99860.63
2023-01-08T14:05:51.180Z,99856.66
2023-01-08T14:08:25.484Z,99864.81
2023-01-08T14:10:53.336Z,99874.50
2023-01-08T14:13:26.653Z,99858.16
2023-01-08T14:15:57.733Z,99861.00
2023-01-08T14:18:28.891Z,99855.19
2023-01-08T14:20:55.640Z,99857.97
2023-01-08T14:23:28.650Z,99853.06
2023-01-08T14:25:55.319Z,99866.44
2023-01-08T14:28:23.020Z,99854.38
2023-01-08T14:30:51.383Z,99857.84
2023-01-08T14:33:20.953Z,99856.16
2023-01-08T14:35:50.721Z,99861.59
2023-01-08T14:38:18.161Z,99862.69
2023-01-08T14:41:05.144Z,99860.03
2023-01-08T14:43:40.129Z,99864.38
2023-01-08T14:46:18.501Z,99866.16
2023-01-08T14:48:46.073Z,99865.63
2023-01-08T14:51:22.798Z,99870.97
2023-01-08T14:53:52.858Z,99869.59
2023-01-08T14:56:30.197Z,99866.97
2023-01-08T14:58:58.175Z,99872.34
2023-01-08T15:01:30.458Z,99863.59
2023-01-08T15:04:13.496Z,99878.38
2023-01-08T15:06:43.773Z,99867.97
2023-01-08T15:09:31.021Z,99859.34
2023-01-08T15:12:00.514Z,99861.75
2023-01-08T15:14:30.951Z,99865.28
2023-01-08T15:16:59.822Z,99863.44
2023-01-08T15:19:39.871Z,99857.38
2023-01-08T15:22:19.740Z,99854.91
2023-01-08T15:25:01.469Z,99853.53
2023-01-08T15:27:29.943Z,99849.16
2023-01-08T15:30:00.205Z,99853.72
2023-01-08T15:32:32.334Z,99851.09
2023-01-08T15:34:58.721Z,99851.19
2023-01-08T15:37:25.198Z,99854.63
2023-01-08T15:39:51.591Z,99848.72
2023-01-08T15:42:45.676Z,99845.03
2023-01-08T15:45:15.628Z,99851.19
2023-01-08T15:47:41.989Z,99845.03
2023-01-08T15:50:09.344Z,99841.44
2023-01-08T15:52:39.781Z,99834.38
2023-01-08T15:55:07.111Z,99834.38
2023-01-08T15:57:33.482Z,99836.56
2023-01-08T15:59:59.875Z,99832.22
2023-01-08T16:02:26.404Z,99840.97
2023-01-08T16:04:55.342Z,99837.41
2023-01-08T16:07:22.227Z,99841.63
2023-01-08T16:09:48.660Z,99840.78
2023-01-08T16:12:15.175Z,99837.41
2023-01-08T16:14:41.678Z,99838.38
2023-01-08T16:17:08.891Z,99842.44
2023-01-08T16:19:35.413Z,99837.41
2023-01-08T16:22:02.156Z,99833.22
2023-01-08T16:24:28.592Z,99832.63
2023-01-08T16:26:54.955Z,99833.97
2023-01-08T16:29:21.583Z,99832.66
2023-01-08T16:31:48.266Z,99833.41
2023-01-08T16:34:15.815Z,99832.34
2023-01-08T16:36:42.400Z,99831.81
2023-01-08T16:39:08.920Z,99820.72
2023-01-08T16:41:36.636Z,99820.53
2023-01-08T16:44:03.223Z,99809.16
2023-01-08T16:46:29.878Z,99812.91
2023-01-08T16:48:56.329Z,99800.69
2023-01-08T16:51:25.098Z,99803.16
2023-01-08T16:53:51.651Z,99803.84
2023-01-08T16:56:18.009Z,99805.59
2023-01-08T16:58:44.417Z,99805.59
2023-01-08T17:01:12.207Z,99802.38
2023-01-08T17:03:39.022Z,99789.16
2023-01-08T17:06:07.198Z,99791.84
2023-01-08T17:08:34.040Z,99792.84
2023-01-08T17:11:00.423Z,99783.88
2023-01-08T17:13:26.806Z,99790.44
2023-01-08T17:15:53.374Z,99791.13
2023-01-08T17:18:20.237Z,99792.06
2023-01-08T17:20:53.844Z,99794.34
2023-01-08T17:23:24.030Z,99782.81
2023-01-08T17:25:50.487Z,99780.09
2023-01-08T17:28:16.848Z,99775.66
2023-01-08T17:30:43.288Z,99772.19
2023-01-08T17:33:09.794Z,99766.13
2023-01-08T17:35:36.277Z,99765.78
2023-01-08T17:38:02.625Z,99763.09
2023-01-08T17:40:29.049Z,99757.13
2023-01-08T17:42:55.789Z,99764.00
2023-01-08T17:45:22.252Z,99779.97
2023-01-08T17:47:48.664Z,99796.22
2023-01-08T17:50:15.386Z,99799.63
2023-01-08T17:52:41.769Z,99802.53
2023-01-08T17:55:08.511Z,99803.66
2023-01-08T17:57:34.889Z,99797.59
2023-01-08T18:00:01.503Z,99801.84
2023-01-08T18:02:28.055Z,99787.28
2023-01-08T18:04:54.541Z,99784.97
2023-01-08T18:07:21.036Z,99789.16
2023-01-08T18:09:49.186Z,99774.03
2023-01-08T18:12:15.585Z,99781.22
2023-01-08T18:14:42.199Z,99774.09
2023-01-08T18:17:08.561Z,99775.00
2023-01-08T18:19:35.372Z,99773.31
2023-01-08T18:22:01.815Z,99774.16
2023-01-08T18:24:28.442Z,99777.28
2023-01-08T18:26:54.939Z,99765.56
2023-01-08T18:29:21.413Z,99761.00
2023-01-08T18:31:47.800Z,99767.13
2023-01-08T18:34:15.005Z,99766.53
2023-01-08T18:36:42.389Z,99766.75
2023-01-08T18:39:08.840Z,99768.63
2023-01-08T18:42:13.729Z,99763.41
2023-01-08T18:44:40.163Z,99768.63
2023-01-08T18:47:06.526Z,99775.94
2023-01-08T18:49:33.022Z,99769.09
2023-01-08T18:52:00.453Z,99767.06
2023-01-08T18:54:26.954Z,99773.00
2023-01-08T18:56:53.350Z,99769.28
2023-01-08T18:59:19.733Z,99770.56
2023-01-08T19:01:46.262Z,99769.69
2023-01-08T19:04:18.107Z,99764.56
2023-01-08T19:06:45.372Z,99771.63
2023-01-08T19:09:11.720Z,99761.53
2023-01-08T19:11:38.211Z,99767.59
2023-01-08T19:14:04.594Z,99771.91
2023-01-08T19:16:31.059Z,99772.81
2023-01-08T19:18:57.708Z,99776.22
2023-01-08T19:21:24.563Z,99774.16
2023-01-08T19:23:50.924Z,99767.53
2023-01-08T19:26:17.621Z,99773.56
2023-01-08T19:28:44.291Z,99769.84
2023-01-08T19:31:13.623Z,99765.41
2023-01-08T19:33:40.866Z,99763.72
2023-01-08T19:36:11.155Z,99758.63
2023-01-08T19:38:37.890Z,99754.41
2023-01-08T19:41:07.811Z,99757.78
2023-01-08T19:43:43.375Z,99754.97
2023-01-08T19:46:12.036Z,99752.25
2023-01-08T19:48:40.084Z,99757.78
2023-01-08T19:51:08.351Z,99756.94
2023-01-08T19:53:34.916Z,99750.03
2023-01-08T19:56:07.361Z,99745.72
2023-01-08T19:58:34.231Z,99748.78
2023-01-08T20:01:05.662Z,99750.84
2023-01-08T20:03:32.081Z,99742.28
2023-01-08T20:05:58.584Z,99739.22
2023-01-08T20:08:24.937Z,99732.59
2023-01-08T20:10:51.483Z,99727.59
2023-01-08T20:13:19.270Z,99730.19
2023-01-08T20:15:55.144Z,99726.91
2023-01-08T20:18:21.515Z,99723.50
2023-01-08T20:20:48.003Z,99724.75
2023-01-08T20:23:14.424Z,99724.00
2023-01-08T20:25:42.015Z,99725.41
2023-01-08T20:28:08.389Z,99727.66
2023-01-08T20:30:34.852Z,99716.31
2023-01-08T20:33:01.215Z,99707.63
2023-01-08T20:35:27.740Z,99718.22
2023-01-08T20:37:54.176Z,99712.44
2023-01-08T20:40:20.740Z,99709.72
2023-01-08T20:42:47.121Z,99709.13
2023-01-08T20:45:13.478Z,99703.84
2023-01-08T20:47:40.001Z,99704.34
2023-01-08T20:50:12.551Z,99698.69
2023-01-08T20:52:45.677Z,99708.00
2023-01-08T20:55:12.051Z,99706.16
2023-01-08T20:57:38.425Z,99706.25
2023-01-08T21:00:05.408Z,99696.72
2023-01-08T21:02:31.937Z,99710.84
2023-01-08T21:04:58.296Z,99700.41
2023-01-08T21:07:24.785Z,99690.03
2023-01-08T21:09:51.192Z,99689.88
2023-01-08T21:12:17.776Z,99686.50
2023-01-08T21:14:44.126Z,99678.59
2023-01-08T21:17:10.636Z,99683.97
2023-01-08T21:19:37.059Z,99680.38
2023-01-08T21:22:03.393Z,99677.13
2023-01-08T21:24:29.932Z,99677.56
2023-01-08T21:26:56.348Z,99674.81
2023-01-08T21:29:23.508Z,99674.47
2023-01-08T21:31:50.260Z,99674.34
2023-01-08T21:34:16.725Z,99668.53
2023-01-08T21:36:43.051Z,99657.97
2023-01-08T21:39:11.273Z,99651.78
2023-01-08T21:41:56.384Z,99647.31
2023-01-08T21:44:43.931Z,99641.34
2023-01-08T21:47:14.551Z,99648.34
2023-01-08T21:49:40.998Z,99636.88
2023-01-08T21:52:26.048Z,99636.09
2023-01-08T21:54:52.859Z,99629.97
2023-01-08T21:57:19.916Z,99628.28
2023-01-08T21:59:50.195Z,99620.47
2023-01-08T22:02:18.766Z,99621.63
2023-01-08T22:04:45.257Z,99620.22
2023-01-08T22:07:11.744Z,99621.09
2023-01-08T22:09:38.302Z,99612.91
2023-01-08T22:12:04.951Z,99615.34
2023-01-08T22:14:31.392Z,99611.59
2023-01-08T22:16:57.840Z,99602.84
2023-01-08T22:19:24.616Z,99596.56
2023-01-08T22:21:50.985Z,99591.34
2023-01-08T22:24:17.386Z,99586.13
2023-01-08T22:26:43.784Z,99583.91
2023-01-08T22:29:10.352Z,99580.22
2023-01-08T22:31:36.788Z,99579.22
2023-01-08T22:34:03.337Z,99569.84
2023-01-08T22:36:30.874Z,99576.84
2023-01-08T22:38:57.321Z,99576.00
2023-01-08T22:41:24.572Z,99566.19
2023-01-08T22:43:56.510Z,99555.03
2023-01-08T22:46:24.076Z,99551.72
2023-01-08T22:48:50.617Z,99553.34
2023-01-08T22:51:17.831Z,99556.97
2023-01-08T22:53:44.283Z,99554.44
2023-01-08T22:56:12.384Z,99550.97
2023-01-08T22:58:45.214Z,99553.78
2023-01-08T23:01:23.211Z,99558.06
2023-01-08T23:03:50.856Z,99557.75
2023-01-08T23:06:18.905Z,99549.25
2023-01-08T23:08:46.348Z,99553.59
2023-01-08T23:11:16.699Z,99553.22
2023-01-08T23:13:43.104Z,99551.69
2023-01-08T23:16:11.684Z,99548.41
2023-01-08T23:18:38.849Z,99549.16
2023-01-08T23:21:17.612Z,99542.81
2023-01-08T23:23:44.817Z,99542.06
2023-01-08T23:26:29.771Z,99548.41
2023-01-08T23:28:57.418Z,99538.13
2023-01-08T23:31:26.965Z,99535.44
2023-01-08T23:33:53.914Z,99527.41
2023-01-08T23:36:21.568Z,99527.56
2023-01-08T23:38:50.946Z,99524.66
2023-01-08T23:41:18.742Z,99523.75
2023-01-08T23:43:45.962Z,99519.59
2023-01-08T23:46:13.512Z,99517.97
2023-01-08T23:48:39.916Z,99521.34
2023-01-08T23:51:06.707Z,99513.75
2023-01-08T23:53:33.070Z,99505.88
2023-01-08T23:55:59.556Z,99495.38
2023-01-08T23:58:25.902Z,99497.34
